Time;durP1;ratioP1;P1;durP2;ratioP2;P2;SDS_P1;SDS_P2;PMS_P1;PMS_P2;Temp;Humidity;BMP_temperature;BMP_pressure;BME280_temperature;BME280_humidity;BME280_pressure;Samples;Min_cycle;Max_cycle;Signal;HPM_P1;HPM_P2
2021/12/05 00:17:37;;;;;;;6.30;1.92;;;;;;;;;;5087548;28;20586;-80
2021/12/05 00:20:21;;;;;;;6.30;2.30;;;;;;;;;;5091072;28;20193;-80
2021/12/05 00:22:48;;;;;;;9.50;1.90;;;;;;;;;;5094080;28;20232;-81
2021/12/05 00:25:19;;;;;;;15.45;2.60;;;;;;;;;;5088319;28;20289;-76
2021/12/05 00:27:51;;;;;;;6.68;2.40;;;;;;;;;;5086384;28;20629;-81
2021/12/05 00:30:43;;;;;;;10.90;2.22;;;;;;;;;;5089226;28;20308;-77
2021/12/05 00:33:29;;;;;;;4.78;2.10;;;;;;;;;;5089488;28;20197;-77
2021/12/05 00:36:45;;;;;;;7.80;2.40;;;;;;;;;;5107236;28;20256;-78
2021/12/05 00:50:05;;;;;;;4.55;2.15;;;;;;;;;;5055372;28;20280;-78
2021/12/05 00:55:37;;;;;;;8.45;2.35;;;;;;;;;;5088718;28;20545;-80
2021/12/05 01:04:08;;;;;;;3.90;2.10;;;;;;;;;;5167409;27;20186;-77
2021/12/05 01:09:27;;;;;;;5.95;2.35;;;;;;;;;;5111810;27;20190;-78
2021/12/05 01:14:49;;;;;;;7.05;2.60;;;;;;;;;;5149611;27;20191;-77
2021/12/05 01:17:20;;;;;;;4.85;2.50;;;;;;;;;;5168197;27;20238;-76
2021/12/05 01:19:48;;;;;;;8.95;2.20;;;;;;;;;;5169199;27;20224;-76
2021/12/05 01:22:19;;;;;;;9.98;2.45;;;;;;;;;;5169518;27;20194;-78
2021/12/05 01:24:58;;;;;;;6.47;2.22;;;;;;;;;;5169350;27;20651;-78
2021/12/05 01:27:35;;;;;;;4.30;1.80;;;;;;;;;;5149897;27;20762;-80
2021/12/05 01:30:07;;;;;;;6.05;2.10;;;;;;;;;;5155516;27;20544;-78
2021/12/05 01:32:47;;;;;;;4.70;1.98;;;;;;;;;;5164236;27;20219;-76
2021/12/05 01:35:25;;;;;;;4.95;1.88;;;;;;;;;;5169675;27;20658;-74
2021/12/05 01:38:07;;;;;;;4.88;2.20;;;;;;;;;;5145438;27;20214;-78
2021/12/05 01:40:47;;;;;;;8.15;2.55;;;;;;;;;;5145965;27;20552;-77
2021/12/05 01:55:34;;;;;;;7.63;2.05;;;;;;;;;;5126361;28;20188;-78
2021/12/05 01:58:17;;;;;;;9.80;2.40;;;;;;;;;;5114296;27;20737;-79
2021/12/05 02:09:08;;;;;;;5.45;2.10;;;;;;;;;;5126685;28;20199;-75
2021/12/05 02:11:52;;;;;;;4.55;2.05;;;;;;;;;;5128139;27;20307;-77
2021/12/05 02:30:58;;;;;;;9.07;2.05;;;;;;;;;;5127114;28;20216;-79
2021/12/05 02:41:35;;;;;;;11.45;2.90;;;;;;;;;;5107318;28;20186;-76
2021/12/05 02:44:05;;;;;;;7.68;1.70;;;;;;;;;;5107464;28;20536;-76
2021/12/05 02:46:33;;;;;;;6.55;1.73;;;;;;;;;;5106493;27;20215;-74
2021/12/05 02:49:04;;;;;;;8.55;1.80;;;;;;;;;;5114773;28;20571;-75
2021/12/05 02:51:32;;;;;;;4.70;1.83;;;;;;;;;;5123325;27;20696;-78
2021/12/05 02:54:06;;;;;;;3.20;1.58;;;;;;;;;;5124395;27;20199;-74
2021/12/05 02:56:39;;;;;;;7.63;2.22;;;;;;;;;;5126195;27;20668;-77
2021/12/05 02:59:18;;;;;;;3.83;2.08;;;;;;;;;;5126451;27;20579;-75
2021/12/05 03:01:50;;;;;;;4.68;2.13;;;;;;;;;;5114596;28;20196;-74
2021/12/05 03:04:17;;;;;;;3.40;1.85;;;;;;;;;;5102978;28;20651;-76
2021/12/05 03:06:51;;;;;;;12.93;2.05;;;;;;;;;;5107662;28;20200;-78
2021/12/05 03:09:20;;;;;;;6.47;2.10;;;;;;;;;;5109673;28;20181;-75
2021/12/05 03:11:47;;;;;;;5.90;2.10;;;;;;;;;;5111369;28;20690;-78
2021/12/05 03:14:15;;;;;;;8.45;2.17;;;;;;;;;;5110002;28;20196;-76
2021/12/05 03:16:43;;;;;;;8.98;2.13;;;;;;;;;;5113411;27;20229;-78
2021/12/05 03:19:10;;;;;;;4.95;1.80;;;;;;;;;;5111475;28;20192;-79
2021/12/05 03:21:38;;;;;;;2.80;1.70;;;;;;;;;;5104268;28;20307;-74
2021/12/05 03:24:06;;;;;;;7.43;2.20;;;;;;;;;;5114473;28;20197;-78
2021/12/05 03:26:36;;;;;;;7.07;1.90;;;;;;;;;;5115127;27;20204;-73
2021/12/05 03:29:04;;;;;;;3.55;1.75;;;;;;;;;;5109157;27;20283;-77
2021/12/05 03:31:32;;;;;;;3.22;1.85;;;;;;;;;;5108893;28;20216;-76
2021/12/05 03:34:00;;;;;;;4.65;2.05;;;;;;;;;;5110889;27;20695;-75
2021/12/05 03:36:28;;;;;;;7.63;2.03;;;;;;;;;;5101929;28;20185;-74
2021/12/05 03:38:55;;;;;;;7.28;2.10;;;;;;;;;;5113210;27;20566;-74
2021/12/05 03:41:22;;;;;;;5.47;2.33;;;;;;;;;;5112630;28;20208;-76
2021/12/05 03:43:53;;;;;;;6.25;2.72;;;;;;;;;;5107274;28;20208;-75
2021/12/05 03:46:21;;;;;;;7.78;2.50;;;;;;;;;;5111302;28;20197;-75
2021/12/05 03:48:49;;;;;;;5.07;1.90;;;;;;;;;;5093968;28;20196;-78
2021/12/05 03:51:18;;;;;;;6.85;2.50;;;;;;;;;;5108640;28;20232;-80
2021/12/05 03:53:46;;;;;;;8.07;2.58;;;;;;;;;;5108738;28;20276;-77
2021/12/05 03:56:13;;;;;;;7.82;2.17;;;;;;;;;;5110647;28;20682;-74
2021/12/05 03:58:41;;;;;;;8.07;2.00;;;;;;;;;;5112700;28;20251;-78
2021/12/05 04:01:11;;;;;;;6.38;2.30;;;;;;;;;;5104671;28;20293;-80
2021/12/05 04:03:39;;;;;;;8.65;2.55;;;;;;;;;;5098257;28;20200;-77
2021/12/05 04:06:07;;;;;;;11.70;2.38;;;;;;;;;;5112703;28;20219;-77
2021/12/05 04:08:35;;;;;;;4.97;2.35;;;;;;;;;;5108488;28;21064;-78
2021/12/05 04:11:05;;;;;;;9.65;2.13;;;;;;;;;;5110209;28;20523;-78
2021/12/05 04:13:32;;;;;;;7.65;3.08;;;;;;;;;;5114460;28;20219;-74
2021/12/05 04:16:01;;;;;;;6.68;1.83;;;;;;;;;;5111467;28;20193;-79
2021/12/05 04:18:29;;;;;;;3.90;1.98;;;;;;;;;;5110335;28;20612;-76
2021/12/05 04:20:57;;;;;;;7.38;2.35;;;;;;;;;;5108169;28;20218;-79
2021/12/05 04:23:24;;;;;;;5.85;1.83;;;;;;;;;;5096839;28;20548;-79
2021/12/05 04:25:52;;;;;;;3.72;1.60;;;;;;;;;;5108153;28;20185;-76
2021/12/05 04:28:23;;;;;;;7.45;2.00;;;;;;;;;;5107402;28;20213;-75
2021/12/05 04:30:50;;;;;;;3.97;1.90;;;;;;;;;;5108939;28;20571;-76
2021/12/05 04:33:18;;;;;;;6.90;1.77;;;;;;;;;;5111100;28;20329;-78
2021/12/05 04:35:47;;;;;;;7.85;2.10;;;;;;;;;;5111040;28;20195;-76
2021/12/05 04:38:14;;;;;;;6.30;1.83;;;;;;;;;;5103179;28;20214;-77
2021/12/05 04:40:41;;;;;;;2.63;1.75;;;;;;;;;;5096612;28;20204;-78
2021/12/05 04:43:09;;;;;;;2.38;1.55;;;;;;;;;;5103728;28;20188;-78
2021/12/05 04:45:39;;;;;;;4.93;1.75;;;;;;;;;;5107705;28;20189;-77
2021/12/05 04:48:07;;;;;;;4.90;1.90;;;;;;;;;;5107591;28;20208;-76
2021/12/05 04:50:35;;;;;;;3.60;1.50;;;;;;;;;;5110426;28;20444;-78
2021/12/05 04:53:04;;;;;;;2.30;1.40;;;;;;;;;;5106897;28;20185;-75
2021/12/05 04:55:32;;;;;;;5.40;1.63;;;;;;;;;;5091726;28;20543;-75
2021/12/05 04:57:59;;;;;;;3.97;2.30;;;;;;;;;;5103666;28;20215;-78
2021/12/05 05:00:28;;;;;;;2.83;1.70;;;;;;;;;;5107170;28;20649;-76
2021/12/05 05:02:55;;;;;;;8.48;1.98;;;;;;;;;;5101581;28;20398;-75
2021/12/05 05:05:23;;;;;;;4.18;1.92;;;;;;;;;;5088477;28;20212;-76
2021/12/05 05:07:51;;;;;;;7.95;1.83;;;;;;;;;;5089580;28;20698;-76
2021/12/05 05:10:21;;;;;;;8.93;2.60;;;;;;;;;;5088517;28;20197;-78
2021/12/05 05:12:48;;;;;;;4.65;2.13;;;;;;;;;;5100016;28;20561;-74
2021/12/05 05:15:20;;;;;;;6.25;1.85;;;;;;;;;;5106505;28;20191;-74
2021/12/05 05:17:49;;;;;;;8.40;2.00;;;;;;;;;;5105611;28;20217;-81
2021/12/05 05:20:22;;;;;;;7.03;1.60;;;;;;;;;;5109590;28;20189;-79
2021/12/05 05:23:06;;;;;;;8.13;1.75;;;;;;;;;;5109715;28;20237;-76
2021/12/05 05:39:30;;;;;;;3.65;2.10;;;;;;;;;;5102404;28;20238;-78
2021/12/05 05:44:56;;;;;;;3.60;1.55;;;;;;;;;;5089446;28;20201;-76
2021/12/05 05:47:31;;;;;;;5.50;2.78;;;;;;;;;;5101773;28;20204;-74
2021/12/05 05:49:58;;;;;;;6.88;1.67;;;;;;;;;;5110818;28;20590;-75
2021/12/05 05:52:26;;;;;;;4.65;1.40;;;;;;;;;;5104649;28;20228;-76
2021/12/05 05:54:56;;;;;;;5.38;2.00;;;;;;;;;;5106372;28;20337;-75
2021/12/05 05:57:28;;;;;;;5.72;1.90;;;;;;;;;;5088698;28;20743;-76
2021/12/05 06:00:02;;;;;;;2.38;1.50;;;;;;;;;;5092635;28;20658;-77
2021/12/05 06:05:12;;;;;;;6.53;1.70;;;;;;;;;;5099171;28;20235;-76
2021/12/05 06:07:43;;;;;;;6.80;2.00;;;;;;;;;;5090987;28;20213;-75
2021/12/05 06:10:11;;;;;;;4.00;1.90;;;;;;;;;;5096159;28;20272;-74
2021/12/05 06:12:40;;;;;;;7.82;2.00;;;;;;;;;;5110350;28;20220;-77
2021/12/05 06:15:09;;;;;;;4.43;1.50;;;;;;;;;;5104004;28;20193;-76
2021/12/05 06:17:36;;;;;;;7.75;2.03;;;;;;;;;;5103994;28;20212;-73
2021/12/05 06:20:04;;;;;;;7.28;2.08;;;;;;;;;;5095294;28;20207;-77
2021/12/05 06:22:31;;;;;;;5.47;1.80;;;;;;;;;;5088717;28;20197;-77
2021/12/05 06:24:59;;;;;;;7.40;2.05;;;;;;;;;;5088014;28;20186;-75
2021/12/05 06:27:26;;;;;;;7.90;2.35;;;;;;;;;;5087904;28;20274;-73
2021/12/05 06:30:04;;;;;;;7.07;2.60;;;;;;;;;;5090151;28;20202;-77
2021/12/05 06:36:49;;;;;;;4.40;2.17;;;;;;;;;;5090796;28;20251;-74
2021/12/05 06:38:23;;;;;;;3.08;2.03;;;;;;;;;;5103328;28;20277;-75
2021/12/05 06:41:01;;;;;;;4.50;1.90;;;;;;;;;;5092445;28;20193;-80
2021/12/05 06:46:17;;;;;;;6.20;2.00;;;;;;;;;;5090732;28;20650;-75
2021/12/05 06:48:45;;;;;;;5.63;1.80;;;;;;;;;;5100577;28;20196;-75
2021/12/05 06:51:12;;;;;;;8.60;2.35;;;;;;;;;;5103134;28;20689;-78
2021/12/05 06:53:40;;;;;;;5.80;2.00;;;;;;;;;;5105288;28;20196;-76
2021/12/05 06:56:07;;;;;;;3.22;2.22;;;;;;;;;;5096840;28;20551;-81
2021/12/05 06:58:35;;;;;;;3.25;2.10;;;;;;;;;;5107361;28;20224;-75
2021/12/05 07:01:03;;;;;;;5.82;2.35;;;;;;;;;;5111350;28;20611;-77
2021/12/05 07:03:32;;;;;;;4.43;2.28;;;;;;;;;;5111884;28;20197;-73
2021/12/05 07:06:02;;;;;;;7.63;2.45;;;;;;;;;;5110874;28;20195;-73
2021/12/05 07:08:33;;;;;;;6.55;2.13;;;;;;;;;;5111144;28;20212;-80
2021/12/05 07:11:06;;;;;;;6.28;2.42;;;;;;;;;;5106623;28;20209;-78
2021/12/05 07:16:20;;;;;;;8.73;2.38;;;;;;;;;;5093633;28;20303;-79
2021/12/05 07:19:03;;;;;;;6.32;2.15;;;;;;;;;;5091696;28;20197;-78
2021/12/05 07:21:39;;;;;;;6.72;1.92;;;;;;;;;;5090463;28;20189;-76
2021/12/05 07:24:14;;;;;;;6.13;2.50;;;;;;;;;;5093434;28;20201;-75
2021/12/05 07:27:02;;;;;;;3.63;2.03;;;;;;;;;;5107339;28;20208;-74
2021/12/05 07:40:26;;;;;;;4.65;1.90;;;;;;;;;;5099853;28;20208;-75
2021/12/05 07:42:54;;;;;;;4.30;2.47;;;;;;;;;;5108533;28;20994;-75
2021/12/05 07:45:28;;;;;;;5.50;2.20;;;;;;;;;;5096575;28;20881;-74
2021/12/05 07:47:56;;;;;;;2.65;2.03;;;;;;;;;;5090232;28;20224;-78
2021/12/05 07:50:36;;;;;;;3.35;2.10;;;;;;;;;;5098111;28;20229;-81
2021/12/05 07:53:09;;;;;;;3.15;1.85;;;;;;;;;;5095518;28;20217;-81
2021/12/05 07:55:41;;;;;;;3.65;2.05;;;;;;;;;;5091517;28;20251;-76
2021/12/05 07:58:23;;;;;;;3.35;2.15;;;;;;;;;;5107445;28;20265;-76
2021/12/05 08:00:59;;;;;;;3.70;2.42;;;;;;;;;;5109573;28;20287;-74
2021/12/05 08:16:55;;;;;;;9.50;2.65;;;;;;;;;;5116037;28;20217;-75
2021/12/05 08:19:22;;;;;;;5.65;2.20;;;;;;;;;;5099791;28;20203;-75
2021/12/05 08:21:55;;;;;;;2.85;1.85;;;;;;;;;;5112101;28;20180;-75
2021/12/05 08:24:22;;;;;;;4.50;1.92;;;;;;;;;;5098532;28;20196;-78
2021/12/05 08:26:51;;;;;;;2.45;2.10;;;;;;;;;;5106311;28;20309;-76
2021/12/05 08:29:25;;;;;;;4.82;2.00;;;;;;;;;;5110139;28;20185;-74
2021/12/05 08:32:08;;;;;;;7.25;2.33;;;;;;;;;;5110804;28;20192;-75
2021/12/05 08:34:56;;;;;;;3.55;2.20;;;;;;;;;;5101315;28;20193;-74
2021/12/05 09:21:20;;;;;;;3.83;2.42;;;;;;;;;;5125234;28;20595;-75
2021/12/05 09:24:02;;;;;;;2.55;1.92;;;;;;;;;;5132601;27;20208;-74
2021/12/05 09:29:30;;;;;;;5.43;1.95;;;;;;;;;;5148814;27;20203;-76
2021/12/05 09:40:16;;;;;;;2.72;1.98;;;;;;;;;;5134355;27;20244;-73
2021/12/05 10:07:31;;;;;;;2.67;2.17;;;;;;;;;;5119695;27;20875;-75
2021/12/05 10:10:11;;;;;;;4.00;2.95;;;;;;;;;;5131667;27;20279;-74
2021/12/05 10:12:58;;;;;;;2.75;2.00;;;;;;;;;;5116259;28;20184;-75
2021/12/05 10:15:36;;;;;;;5.32;2.10;;;;;;;;;;5105084;28;20649;-75
2021/12/05 10:18:25;;;;;;;4.22;1.70;;;;;;;;;;5129693;27;20214;-77
2021/12/05 10:26:35;;;;;;;5.10;2.28;;;;;;;;;;5115203;27;20196;-79
2021/12/05 10:34:45;;;;;;;2.42;1.70;;;;;;;;;;5105830;28;20192;-78
2021/12/05 10:37:16;;;;;;;4.13;2.00;;;;;;;;;;5125152;28;20261;-75
2021/12/05 10:39:43;;;;;;;3.72;1.83;;;;;;;;;;5114164;27;20206;-78
2021/12/05 10:42:37;;;;;;;1.60;1.50;;;;;;;;;;5106342;28;20210;-77
2021/12/05 10:45:05;;;;;;;2.83;1.80;;;;;;;;;;5096592;27;20196;-75
2021/12/05 10:47:36;;;;;;;1.75;1.52;;;;;;;;;;5130312;27;20207;-75
2021/12/05 10:50:18;;;;;;;2.75;1.60;;;;;;;;;;5124937;27;20204;-79
2021/12/05 10:52:47;;;;;;;2.88;1.80;;;;;;;;;;5089856;28;20567;-75
2021/12/05 10:55:14;;;;;;;2.00;1.80;;;;;;;;;;5120941;27;20185;-74
2021/12/05 10:57:44;;;;;;;2.05;1.70;;;;;;;;;;5120430;28;20219;-76
2021/12/05 11:00:12;;;;;;;6.85;2.83;;;;;;;;;;5121155;27;20193;-75
2021/12/05 11:02:40;;;;;;;5.40;2.50;;;;;;;;;;5124156;28;20927;-74
2021/12/05 11:05:07;;;;;;;1.75;1.45;;;;;;;;;;5121233;27;20225;-75
2021/12/05 11:07:38;;;;;;;1.83;1.52;;;;;;;;;;5117971;27;20311;-75
2021/12/05 11:10:11;;;;;;;3.85;1.90;;;;;;;;;;5129881;27;20203;-76
2021/12/05 11:12:39;;;;;;;3.58;1.50;;;;;;;;;;5135200;27;20198;-75
2021/12/05 11:15:09;;;;;;;2.63;1.80;;;;;;;;;;5114747;27;20726;-76
2021/12/05 11:17:37;;;;;;;2.08;1.70;;;;;;;;;;5110745;28;20215;-75
2021/12/05 11:20:09;;;;;;;2.90;1.70;;;;;;;;;;5078989;28;20189;-75
2021/12/05 11:22:37;;;;;;;5.25;1.70;;;;;;;;;;5089783;28;20193;-76
2021/12/05 11:25:09;;;;;;;2.50;1.90;;;;;;;;;;5075131;28;20189;-77
2021/12/05 11:27:37;;;;;;;1.73;1.57;;;;;;;;;;5093829;28;20350;-77
2021/12/05 11:30:10;;;;;;;4.00;1.77;;;;;;;;;;5081596;27;20452;-77
2021/12/05 11:32:39;;;;;;;2.85;1.73;;;;;;;;;;5118666;27;20314;-75
2021/12/05 11:35:21;;;;;;;2.00;1.60;;;;;;;;;;5113660;27;20193;-74
2021/12/05 11:37:49;;;;;;;3.03;1.60;;;;;;;;;;5077973;28;20213;-76
2021/12/05 11:40:20;;;;;;;1.58;1.30;;;;;;;;;;5090395;28;20192;-76
2021/12/05 11:42:51;;;;;;;3.28;1.65;;;;;;;;;;5102895;28;20232;-76
2021/12/05 11:45:19;;;;;;;2.15;1.65;;;;;;;;;;5093740;27;20185;-77
2021/12/05 11:47:46;;;;;;;3.77;1.40;;;;;;;;;;5118016;27;20220;-75
2021/12/05 11:50:13;;;;;;;2.40;1.70;;;;;;;;;;5121185;27;20449;-77
2021/12/05 11:52:41;;;;;;;2.53;1.52;;;;;;;;;;5106566;27;20551;-77
2021/12/05 11:55:20;;;;;;;2.80;1.40;;;;;;;;;;5104434;27;20185;-79
2021/12/05 11:57:49;;;;;;;2.05;1.55;;;;;;;;;;5101370;28;20467;-75
2021/12/05 12:00:18;;;;;;;3.28;1.70;;;;;;;;;;5077584;28;20666;-78
2021/12/05 12:02:46;;;;;;;2.60;1.52;;;;;;;;;;5086845;27;20219;-77
2021/12/05 12:05:17;;;;;;;2.50;1.53;;;;;;;;;;5114870;27;20196;-76
2021/12/05 12:07:45;;;;;;;1.77;1.58;;;;;;;;;;5093887;27;20463;-77
2021/12/05 12:10:15;;;;;;;2.13;1.07;;;;;;;;;;5093431;28;20207;-75
2021/12/05 12:12:44;;;;;;;1.47;1.10;;;;;;;;;;5093045;28;20477;-78
2021/12/05 12:15:14;;;;;;;1.73;1.33;;;;;;;;;;5077692;28;20459;-77
2021/12/05 12:17:41;;;;;;;2.50;1.83;;;;;;;;;;5079804;28;20467;-75
2021/12/05 12:20:11;;;;;;;1.67;1.00;;;;;;;;;;5105558;27;20457;-75
2021/12/05 12:22:39;;;;;;;1.70;1.30;;;;;;;;;;5093437;27;20462;-76
2021/12/05 12:25:10;;;;;;;2.40;1.10;;;;;;;;;;5070933;28;20457;-75
2021/12/05 12:27:37;;;;;;;1.87;1.40;;;;;;;;;;5098556;28;20474;-77
2021/12/05 12:30:08;;;;;;;2.50;1.63;;;;;;;;;;5090894;28;20455;-79
2021/12/05 12:32:40;;;;;;;1.97;1.60;;;;;;;;;;5096383;28;20450;-75
2021/12/05 12:35:09;;;;;;;1.58;1.40;;;;;;;;;;5095684;28;20551;-78
2021/12/05 12:37:51;;;;;;;2.30;1.30;;;;;;;;;;5112044;27;20223;-77
2021/12/05 12:40:32;;;;;;;1.10;1.00;;;;;;;;;;5091560;28;20463;-78
2021/12/05 12:42:59;;;;;;;3.13;1.33;;;;;;;;;;5074413;28;20465;-74
2021/12/05 12:45:27;;;;;;;2.23;1.30;;;;;;;;;;5089899;28;20862;-75
2021/12/05 12:47:58;;;;;;;2.37;1.10;;;;;;;;;;5096785;28;20462;-73
2021/12/05 12:50:33;;;;;;;1.40;1.30;;;;;;;;;;5095565;28;20467;-75
2021/12/05 12:53:02;;;;;;;2.13;1.30;;;;;;;;;;5102445;27;20510;-76
2021/12/05 12:55:30;;;;;;;2.40;1.40;;;;;;;;;;5108223;27;20623;-75
2021/12/05 12:57:59;;;;;;;2.20;1.70;;;;;;;;;;5079933;28;20534;-74
2021/12/05 13:00:29;;;;;;;1.97;1.50;;;;;;;;;;5082414;28;20542;-78
2021/12/05 13:03:01;;;;;;;1.60;1.50;;;;;;;;;;5089266;28;20471;-74
2021/12/05 13:11:00;;;;;;;2.63;1.50;;;;;;;;;;5098744;27;20437;-75
2021/12/05 13:13:29;;;;;;;3.03;1.43;;;;;;;;;;5125652;27;20425;-74
2021/12/05 13:15:59;;;;;;;1.77;1.63;;;;;;;;;;5110718;27;20445;-74
2021/12/05 13:18:30;;;;;;;2.03;1.30;;;;;;;;;;5130762;27;20974;-75
2021/12/05 13:21:03;;;;;;;1.37;1.10;;;;;;;;;;5086200;28;20447;-75
2021/12/05 13:23:32;;;;;;;1.70;1.20;;;;;;;;;;5097506;27;20498;-73
2021/12/05 13:26:09;;;;;;;1.60;1.00;;;;;;;;;;5116123;27;20426;-75
2021/12/05 13:28:38;;;;;;;1.43;1.20;;;;;;;;;;5104261;27;21121;-76
2021/12/05 13:31:20;;;;;;;1.60;1.17;;;;;;;;;;5130582;27;20438;-74
2021/12/05 13:33:48;;;;;;;1.90;1.60;;;;;;;;;;5087107;28;20465;-74
2021/12/05 13:36:32;;;;;;;2.00;1.57;;;;;;;;;;5089428;28;20431;-77
2021/12/05 13:38:59;;;;;;;1.47;1.30;;;;;;;;;;5077498;27;20458;-76
2021/12/05 13:41:29;;;;;;;2.10;1.70;;;;;;;;;;5112223;27;20450;-76
2021/12/05 13:43:57;;;;;;;1.53;1.43;;;;;;;;;;5111617;27;20503;-73
2021/12/05 13:46:33;;;;;;;1.93;1.30;;;;;;;;;;5086662;28;20440;-75
2021/12/05 13:49:02;;;;;;;2.90;1.57;;;;;;;;;;5088559;28;20459;-74
2021/12/05 13:51:31;;;;;;;2.40;1.70;;;;;;;;;;5113552;28;20445;-75
2021/12/05 13:54:01;;;;;;;2.00;1.50;;;;;;;;;;5094307;28;21654;-76
2021/12/05 13:56:29;;;;;;;1.60;1.50;;;;;;;;;;5110278;28;21000;-75
2021/12/05 13:58:59;;;;;;;1.73;1.20;;;;;;;;;;5114752;28;20453;-75
2021/12/05 14:01:28;;;;;;;1.20;1.10;;;;;;;;;;5101113;28;20457;-73
2021/12/05 14:03:57;;;;;;;2.03;1.50;;;;;;;;;;5083530;28;20578;-74
2021/12/05 14:06:35;;;;;;;2.60;1.30;;;;;;;;;;5088750;28;20443;-76
2021/12/05 14:09:06;;;;;;;2.23;1.40;;;;;;;;;;5072896;28;20439;-77
2021/12/05 14:11:34;;;;;;;2.40;1.40;;;;;;;;;;5108207;28;21412;-74
2021/12/05 14:14:03;;;;;;;3.53;1.40;;;;;;;;;;5073813;28;20439;-77
2021/12/05 14:16:32;;;;;;;2.63;1.60;;;;;;;;;;5090736;28;20442;-76
2021/12/05 14:19:00;;;;;;;2.53;1.23;;;;;;;;;;5082663;28;20441;-74
2021/12/05 14:21:27;;;;;;;1.40;1.00;;;;;;;;;;5109802;28;20534;-76
2021/12/05 14:23:58;;;;;;;2.43;1.50;;;;;;;;;;5104471;28;20463;-77
2021/12/05 14:26:26;;;;;;;2.40;1.57;;;;;;;;;;5073646;28;20450;-76
2021/12/05 14:28:56;;;;;;;2.63;1.63;;;;;;;;;;5106766;28;20441;-75
2021/12/05 14:31:27;;;;;;;1.80;1.33;;;;;;;;;;5098611;28;20465;-73
2021/12/05 14:33:55;;;;;;;3.10;1.10;;;;;;;;;;5082357;28;20205;-76
2021/12/05 14:36:24;;;;;;;2.20;1.50;;;;;;;;;;5091399;28;20456;-75
2021/12/05 14:39:09;;;;;;;2.00;1.20;;;;;;;;;;5090204;28;20461;-77
2021/12/05 14:41:38;;;;;;;2.80;1.40;;;;;;;;;;5104565;28;20446;-77
2021/12/05 14:44:21;;;;;;;4.53;1.60;;;;;;;;;;5114217;28;20482;-75
2021/12/05 14:46:50;;;;;;;1.93;1.40;;;;;;;;;;5101993;28;20508;-75
2021/12/05 14:49:18;;;;;;;2.80;1.53;;;;;;;;;;5070576;28;20451;-76
2021/12/05 14:51:46;;;;;;;4.83;1.73;;;;;;;;;;5093146;28;20439;-78
2021/12/05 14:54:18;;;;;;;2.90;2.20;;;;;;;;;;5090536;28;21352;-77
2021/12/05 14:56:47;;;;;;;2.20;1.70;;;;;;;;;;5105155;27;20556;-76
2021/12/05 14:59:15;;;;;;;2.50;1.73;;;;;;;;;;5113800;27;20461;-77
2021/12/05 15:01:44;;;;;;;2.20;1.30;;;;;;;;;;5117149;27;20454;-78
2021/12/05 15:04:11;;;;;;;3.00;1.93;;;;;;;;;;5073021;28;20234;-75
2021/12/05 15:06:41;;;;;;;1.90;1.40;;;;;;;;;;5049133;28;21004;-73
2021/12/05 15:09:17;;;;;;;3.53;1.90;;;;;;;;;;5051624;28;20770;-76
2021/12/05 15:11:51;;;;;;;2.70;2.20;;;;;;;;;;5052621;28;20461;-74
2021/12/05 15:14:18;;;;;;;4.27;2.13;;;;;;;;;;5052831;28;20443;-77
2021/12/05 15:16:52;;;;;;;3.63;2.03;;;;;;;;;;5055704;28;20467;-76
2021/12/05 15:19:19;;;;;;;3.87;2.23;;;;;;;;;;5058251;28;21013;-77
2021/12/05 15:21:46;;;;;;;3.47;1.70;;;;;;;;;;5063202;28;20524;-74
2021/12/05 15:24:14;;;;;;;5.20;2.10;;;;;;;;;;5051214;28;21030;-75
2021/12/05 15:26:41;;;;;;;3.33;2.10;;;;;;;;;;5050467;28;20214;-76
2021/12/05 15:29:10;;;;;;;4.70;2.30;;;;;;;;;;5054975;28;20218;-74
2021/12/05 15:31:38;;;;;;;7.03;2.10;;;;;;;;;;5057374;28;20193;-76
2021/12/05 15:34:18;;;;;;;3.33;1.85;;;;;;;;;;5052091;28;20449;-74
2021/12/05 15:36:45;;;;;;;3.07;2.03;;;;;;;;;;5051231;28;20210;-78
2021/12/05 15:39:19;;;;;;;2.75;1.98;;;;;;;;;;5050887;28;20900;-76
2021/12/05 15:41:50;;;;;;;3.50;2.10;;;;;;;;;;5071721;28;20216;-75
2021/12/05 15:44:33;;;;;;;3.05;2.35;;;;;;;;;;5064082;28;20489;-76
2021/12/05 15:47:03;;;;;;;3.50;2.30;;;;;;;;;;5053961;28;20568;-76
2021/12/05 15:49:42;;;;;;;4.33;2.10;;;;;;;;;;5055634;28;20459;-77
2021/12/05 15:52:09;;;;;;;3.67;2.30;;;;;;;;;;5062546;28;20460;-77
2021/12/05 15:54:38;;;;;;;3.20;2.03;;;;;;;;;;5070698;28;20221;-84
2021/12/05 15:57:08;;;;;;;5.15;2.30;;;;;;;;;;5064070;28;20477;-78
2021/12/05 15:59:39;;;;;;;3.27;2.00;;;;;;;;;;5055552;28;20190;-77
2021/12/05 16:02:10;;;;;;;2.83;2.10;;;;;;;;;;5052422;28;20463;-77
2021/12/05 16:04:41;;;;;;;2.23;1.70;;;;;;;;;;5114867;27;21072;-80
2021/12/05 16:07:10;;;;;;;4.47;2.13;;;;;;;;;;5112243;27;20879;-77
2021/12/05 16:09:38;;;;;;;3.13;2.10;;;;;;;;;;5092195;28;20200;-79
2021/12/05 16:12:08;;;;;;;5.93;2.10;;;;;;;;;;5089242;28;20976;-76
2021/12/05 16:14:37;;;;;;;2.40;2.20;;;;;;;;;;5090671;28;20443;-77
2021/12/05 16:17:15;;;;;;;4.95;3.13;;;;;;;;;;5090196;28;20475;-77
2021/12/05 16:19:57;;;;;;;2.78;2.30;;;;;;;;;;5093585;28;20276;-76
2021/12/05 16:22:27;;;;;;;4.75;2.40;;;;;;;;;;5078222;28;20758;-77
2021/12/05 16:24:55;;;;;;;4.30;2.67;;;;;;;;;;5105037;27;20231;-78
2021/12/05 16:27:22;;;;;;;3.88;2.78;;;;;;;;;;5115730;27;20481;-75
2021/12/05 16:29:52;;;;;;;3.43;2.40;;;;;;;;;;5107016;27;20599;-76
2021/12/05 16:32:21;;;;;;;3.93;1.93;;;;;;;;;;5107539;28;20477;-76
2021/12/05 16:34:49;;;;;;;3.00;1.90;;;;;;;;;;5112688;28;20434;-76
2021/12/05 16:37:19;;;;;;;3.33;1.70;;;;;;;;;;5114425;28;20449;-77
2021/12/05 16:39:49;;;;;;;2.58;1.67;;;;;;;;;;5113528;28;20200;-76
2021/12/05 16:42:18;;;;;;;2.72;2.05;;;;;;;;;;5110929;28;20197;-74
2021/12/05 16:44:53;;;;;;;4.78;2.63;;;;;;;;;;5101448;28;20228;-79
2021/12/05 16:47:23;;;;;;;3.35;2.47;;;;;;;;;;5097494;27;20215;-76
2021/12/05 16:49:51;;;;;;;3.88;2.80;;;;;;;;;;5099860;27;20275;-78
2021/12/05 16:52:20;;;;;;;4.45;2.80;;;;;;;;;;5115530;27;20211;-80
2021/12/05 16:54:52;;;;;;;4.10;3.10;;;;;;;;;;5100800;28;20200;-78
2021/12/05 16:57:22;;;;;;;5.15;3.38;;;;;;;;;;5107208;28;20208;-77
2021/12/05 16:59:50;;;;;;;7.28;3.55;;;;;;;;;;5107789;28;20192;-76
2021/12/05 17:02:20;;;;;;;7.13;4.05;;;;;;;;;;5102688;28;20711;-76
2021/12/05 17:04:57;;;;;;;4.43;3.42;;;;;;;;;;5096143;27;20226;-77
2021/12/05 17:07:41;;;;;;;6.05;3.15;;;;;;;;;;5099517;27;20220;-74
2021/12/05 17:10:11;;;;;;;4.13;3.08;;;;;;;;;;5073733;28;20197;-75
2021/12/05 17:12:39;;;;;;;4.90;3.20;;;;;;;;;;5107990;28;20181;-80
2021/12/05 17:15:15;;;;;;;6.25;3.42;;;;;;;;;;5110164;28;20193;-82
2021/12/05 17:17:44;;;;;;;4.22;3.05;;;;;;;;;;5109052;28;20257;-81
2021/12/05 17:20:26;;;;;;;4.72;3.42;;;;;;;;;;5108928;27;20538;-81
2021/12/05 17:22:55;;;;;;;3.42;2.80;;;;;;;;;;5100111;27;20541;-80
2021/12/05 17:25:31;;;;;;;5.85;3.20;;;;;;;;;;5111408;27;20228;-77
2021/12/05 17:27:58;;;;;;;3.63;3.10;;;;;;;;;;5105864;28;20208;-83
2021/12/05 17:30:25;;;;;;;4.90;3.15;;;;;;;;;;5093583;28;20593;-81
2021/12/05 17:32:52;;;;;;;6.32;3.10;;;;;;;;;;5089414;28;20196;-77
2021/12/05 17:35:21;;;;;;;6.55;3.10;;;;;;;;;;5089393;28;20189;-76
2021/12/05 17:37:50;;;;;;;5.20;3.00;;;;;;;;;;5107111;27;20280;-75
2021/12/05 17:40:19;;;;;;;6.43;3.97;;;;;;;;;;5095837;27;20203;-75
2021/12/05 17:42:46;;;;;;;5.05;3.35;;;;;;;;;;5088523;28;20685;-80
2021/12/05 17:45:14;;;;;;;5.20;3.45;;;;;;;;;;5089822;28;20221;-75
2021/12/05 17:47:42;;;;;;;5.10;3.15;;;;;;;;;;5071304;28;20213;-77
2021/12/05 17:50:11;;;;;;;4.90;3.17;;;;;;;;;;5087798;28;20223;-78
2021/12/05 17:52:38;;;;;;;5.88;3.92;;;;;;;;;;5091093;27;20642;-78
2021/12/05 17:55:15;;;;;;;5.32;3.72;;;;;;;;;;5115504;27;20264;-74
2021/12/05 17:57:49;;;;;;;3.95;3.40;;;;;;;;;;5103261;27;20288;-77
2021/12/05 18:00:33;;;;;;;5.30;3.58;;;;;;;;;;5113283;27;20230;-78
2021/12/05 18:02:59;;;;;;;5.97;3.60;;;;;;;;;;5085630;28;20294;-76
2021/12/05 18:05:28;;;;;;;5.80;4.00;;;;;;;;;;5108472;28;20232;-76
2021/12/05 18:07:57;;;;;;;6.30;4.07;;;;;;;;;;5107669;28;20220;-76
2021/12/05 18:10:26;;;;;;;6.03;4.30;;;;;;;;;;5114752;28;20189;-76
2021/12/05 18:12:58;;;;;;;6.45;4.10;;;;;;;;;;5113681;28;20241;-78
2021/12/05 18:15:28;;;;;;;5.00;3.55;;;;;;;;;;5091377;28;20192;-76
2021/12/05 18:17:56;;;;;;;5.53;3.60;;;;;;;;;;5109446;28;20307;-76
2021/12/05 18:20:25;;;;;;;7.13;3.72;;;;;;;;;;5077081;28;20185;-78
2021/12/05 18:22:53;;;;;;;4.45;3.85;;;;;;;;;;5089185;28;20655;-78
2021/12/05 18:25:22;;;;;;;6.50;4.22;;;;;;;;;;5098734;28;20216;-75
2021/12/05 18:27:50;;;;;;;7.07;4.85;;;;;;;;;;5115548;28;20212;-75
2021/12/05 18:30:21;;;;;;;5.72;4.10;;;;;;;;;;5079370;28;20565;-77
2021/12/05 18:32:49;;;;;;;6.00;4.03;;;;;;;;;;5117278;27;20634;-80
2021/12/05 18:35:19;;;;;;;9.68;4.78;;;;;;;;;;5115382;27;20191;-79
2021/12/05 18:37:46;;;;;;;4.55;3.63;;;;;;;;;;5110434;28;20211;-75
2021/12/05 18:40:14;;;;;;;7.70;4.00;;;;;;;;;;5113114;28;20405;-75
2021/12/05 18:42:42;;;;;;;6.32;3.88;;;;;;;;;;5098899;28;20185;-80
2021/12/05 18:45:12;;;;;;;6.13;4.10;;;;;;;;;;5074435;28;20251;-77
2021/12/05 18:47:40;;;;;;;6.18;3.95;;;;;;;;;;5089190;28;20236;-78
2021/12/05 18:50:09;;;;;;;5.40;3.67;;;;;;;;;;5111274;28;20181;-77
2021/12/05 18:52:36;;;;;;;7.70;4.53;;;;;;;;;;5107335;28;20245;-77
2021/12/05 18:55:05;;;;;;;6.38;4.28;;;;;;;;;;5113590;27;20212;-75
2021/12/05 18:57:32;;;;;;;7.05;4.63;;;;;;;;;;5102279;27;20210;-80
2021/12/05 19:00:05;;;;;;;5.00;4.15;;;;;;;;;;5131544;27;20249;-78
2021/12/05 19:05:29;;;;;;;6.03;4.20;;;;;;;;;;5131609;27;20219;-81